createdAt,value
2022-09-12T00:02:57.601Z,90.12
2022-09-12T00:08:00.243Z,90.26
2022-09-12T00:13:02.009Z,90.34
2022-09-12T00:18:03.921Z,89.97
2022-09-12T00:23:05.719Z,90.29
2022-09-12T00:28:07.472Z,89.88
2022-09-12T00:33:10.019Z,90.16
2022-09-12T00:38:16.326Z,89.95
2022-09-12T00:43:29.996Z,90.18
2022-09-12T00:48:55.962Z,90.04
2022-09-12T00:53:59.492Z,90.27
2022-09-12T00:59:12.208Z,90.25
2022-09-12T01:04:14.300Z,90.44
2022-09-12T01:09:20.434Z,90.35
2022-09-12T01:14:22.026Z,90.40
2022-09-12T01:19:52.432Z,90.66
2022-09-12T01:25:47.044Z,90.22
2022-09-12T01:31:08.861Z,90.40
2022-09-12T01:36:17.139Z,90.05
2022-09-12T01:41:30.522Z,90.22
2022-09-12T01:46:46.954Z,89.88
2022-09-12T01:51:59.105Z,90.27
2022-09-12T01:57:08.715Z,90.08
2022-09-12T02:02:24.161Z,89.80
2022-09-12T02:07:37.969Z,90.26
2022-09-12T02:12:48.864Z,90.54
2022-09-12T02:17:52.328Z,90.80
2022-09-12T02:22:57.417Z,90.89
2022-09-12T02:28:09.589Z,90.75
2022-09-12T02:33:26.760Z,90.69
2022-09-12T02:38:48.702Z,90.10
2022-09-12T02:43:52.691Z,90.37
2022-09-12T02:48:56.116Z,90.16
2022-09-12T02:53:58.128Z,90.34
2022-09-12T02:59:04.870Z,90.44
2022-09-12T03:04:31.309Z,90.38
2022-09-12T03:09:40.206Z,90.63
2022-09-12T03:14:42.041Z,90.54
2022-09-12T03:20:01.198Z,90.88
2022-09-12T03:25:21.961Z,90.63
2022-09-12T03:30:24.499Z,90.88
2022-09-12T03:35:26.661Z,90.82
2022-09-12T03:40:28.218Z,91.15
2022-09-12T03:45:30.402Z,90.75
2022-09-12T03:50:32.449Z,90.70
2022-09-12T03:55:34.263Z,90.96
2022-09-12T04:00:36.117Z,90.96
2022-09-12T04:05:37.984Z,91.12
2022-09-12T04:10:40.135Z,91.12
2022-09-12T04:15:41.989Z,90.78
2022-09-12T04:20:43.553Z,90.69
2022-09-12T04:25:52.960Z,90.88
2022-09-12T04:30:55.882Z,90.56
2022-09-12T04:36:05.204Z,90.48
2022-09-12T04:41:29.008Z,90.77
2022-09-12T04:46:33.333Z,91.02
2022-09-12T04:51:37.501Z,90.52
2022-09-12T04:56:42.174Z,90.77
2022-09-12T05:01:43.973Z,90.81
2022-09-12T05:06:47.444Z,90.90
2022-09-12T05:12:05.619Z,91.01
2022-09-12T05:17:07.972Z,91.08
2022-09-12T05:22:09.970Z,91.22
2022-09-12T05:27:11.885Z,91.25
2022-09-12T05:32:13.746Z,91.33
2022-09-12T05:37:15.540Z,91.84
2022-09-12T05:42:17.331Z,91.57
2022-09-12T05:47:19.201Z,92.18
2022-09-12T05:52:21.001Z,92.02
2022-09-12T05:57:22.862Z,91.72
2022-09-12T06:02:24.739Z,93.66
2022-09-12T06:07:26.648Z,94.12
2022-09-12T06:12:31.028Z,93.31
2022-09-12T06:17:33.069Z,93.12
2022-09-12T06:22:34.710Z,93.67
2022-09-12T06:27:36.472Z,93.66
2022-09-12T06:32:38.247Z,93.65
2022-09-12T06:37:40.695Z,93.10
2022-09-12T06:42:42.357Z,92.86
2022-09-12T06:47:44.130Z,92.61
2022-09-12T06:52:49.474Z,91.72
2022-09-12T06:57:52.274Z,91.01
2022-09-12T07:02:56.546Z,90.37
2022-09-12T07:07:58.612Z,89.84
2022-09-12T07:13:00.413Z,89.81
2022-09-12T07:18:02.812Z,88.91
2022-09-12T07:23:04.619Z,88.14
2022-09-12T07:28:08.014Z,87.39
2022-09-12T07:33:09.681Z,87.52
2022-09-12T07:38:11.456Z,87.55
2022-09-12T07:43:13.253Z,87.13
2022-09-12T07:48:15.092Z,86.94
2022-09-12T07:53:16.885Z,86.50
2022-09-12T07:58:18.480Z,85.96
2022-09-12T08:03:20.510Z,85.72
2022-09-12T08:08:22.311Z,85.53
2022-09-12T08:13:24.541Z,85.75
2022-09-12T08:18:31.002Z,85.32
2022-09-12T08:23:33.533Z,85.40
2022-09-12T08:28:35.934Z,85.41
2022-09-12T08:33:38.173Z,84.80
2022-09-12T08:38:43.753Z,84.65
2022-09-12T08:43:52.054Z,85.14
2022-09-12T08:48:59.207Z,84.69
2022-09-12T08:54:03.061Z,84.96
2022-09-12T08:59:04.678Z,84.55
2022-09-12T09:04:15.556Z,84.26
2022-09-12T09:09:26.372Z,84.10
2022-09-12T09:14:59.013Z,83.87
2022-09-12T09:20:19.218Z,83.06
2022-09-12T09:25:25.269Z,83.30
2022-09-12T09:30:28.696Z,83.21
2022-09-12T09:35:47.536Z,83.11
2022-09-12T09:41:16.257Z,82.68
2022-09-12T09:46:18.501Z,82.44
2022-09-12T09:51:32.853Z,82.13
2022-09-12T09:56:36.530Z,82.36
2022-09-12T10:01:51.983Z,81.82
2022-09-12T10:06:59.087Z,81.00
2022-09-12T10:12:20.564Z,79.97
2022-09-12T10:17:34.302Z,80.04
2022-09-12T10:22:38.369Z,80.14
2022-09-12T10:27:42.146Z,77.60
2022-09-12T10:32:52.241Z,75.99
2022-09-12T10:37:58.560Z,76.96
2022-09-12T10:43:00.818Z,76.77
2022-09-12T10:48:24.480Z,76.12
2022-09-12T10:53:47.898Z,76.26
2022-09-12T10:59:20.105Z,74.94
2022-09-12T11:04:34.602Z,75.39
2022-09-12T11:09:54.716Z,75.61
2022-09-12T11:15:26.495Z,74.13
2022-09-12T11:20:40.954Z,72.66
2022-09-12T11:25:50.386Z,72.18
2022-09-12T11:31:36.526Z,69.49
2022-09-12T11:36:44.303Z,70.11
2022-09-12T11:41:58.030Z,69.67
2022-09-12T11:47:03.919Z,70.10
2022-09-12T11:52:11.839Z,67.74
2022-09-12T11:57:18.437Z,69.00
2022-09-12T12:02:27.713Z,68.39
2022-09-12T12:07:45.171Z,68.66
2022-09-12T12:12:48.632Z,67.23
2022-09-12T12:18:04.825Z,65.53
2022-09-12T12:23:06.737Z,67.48
2022-09-12T12:28:09.122Z,67.32
2022-09-12T12:33:10.968Z,66.82
2022-09-12T12:38:31.205Z,66.35
2022-09-12T12:43:34.612Z,66.40
2022-09-12T12:49:03.321Z,65.80
2022-09-12T12:54:28.205Z,67.75
2022-09-12T12:59:30.817Z,68.03
2022-09-12T13:04:33.926Z,67.63
2022-09-12T13:09:52.585Z,67.46
2022-09-12T13:14:58.386Z,68.04
2022-09-12T13:20:30.111Z,67.48
2022-09-12T13:25:36.726Z,68.15
2022-09-12T13:31:06.101Z,68.10
2022-09-12T13:36:09.917Z,68.82
2022-09-12T13:41:35.782Z,69.01
2022-09-12T13:46:38.155Z,68.86
2022-09-12T13:51:40.566Z,69.08
2022-09-12T13:56:49.962Z,68.99
2022-09-12T14:01:52.203Z,69.07
2022-09-12T14:06:54.388Z,69.28
2022-09-12T14:11:57.756Z,68.92
2022-09-12T14:17:00.548Z,68.76
2022-09-12T14:22:02.537Z,68.42
2022-09-12T14:27:05.013Z,68.09
2022-09-12T14:32:23.191Z,67.76
2022-09-12T14:37:25.313Z,65.65
2022-09-12T14:42:31.138Z,67.23
2022-09-12T14:47:42.455Z,65.19
2022-09-12T14:52:44.409Z,63.14
2022-09-12T14:57:47.900Z,62.56
2022-09-12T15:02:52.069Z,63.42
2022-09-12T15:08:15.912Z,61.85
2022-09-12T15:13:20.629Z,62.59
2022-09-12T15:18:25.836Z,63.44
2022-09-12T15:23:43.007Z,64.12
2022-09-12T15:28:45.394Z,64.70
2022-09-12T15:33:47.319Z,64.58
2022-09-12T15:38:50.726Z,64.74
2022-09-12T15:43:52.599Z,65.01
2022-09-12T15:48:54.189Z,64.87
2022-09-12T15:53:56.015Z,64.24
2022-09-12T15:58:59.664Z,64.92
2022-09-12T16:04:03.363Z,65.92
2022-09-12T16:09:05.769Z,66.17
2022-09-12T16:14:07.971Z,66.40
2022-09-12T16:19:11.090Z,66.10
2022-09-12T16:24:12.858Z,66.18
2022-09-12T16:29:14.721Z,66.79
2022-09-12T16:34:16.522Z,65.88
2022-09-12T16:39:18.488Z,66.65
2022-09-12T16:44:20.056Z,66.49
2022-09-12T16:49:21.895Z,66.82
2022-09-12T16:54:23.878Z,67.84
2022-09-12T16:59:25.636Z,67.54
2022-09-12T17:04:28.804Z,67.98
2022-09-12T17:09:30.457Z,70.58
2022-09-12T17:14:32.305Z,71.38
2022-09-12T17:19:33.991Z,72.13
2022-09-12T17:24:35.822Z,72.54
2022-09-12T17:29:38.691Z,72.47
2022-09-12T17:34:40.852Z,73.82
2022-09-12T17:39:42.794Z,73.86
2022-09-12T17:44:44.569Z,74.35
2022-09-12T17:49:47.591Z,74.63
2022-09-12T17:54:49.521Z,75.46
2022-09-12T17:59:51.609Z,76.53
2022-09-12T18:04:53.374Z,76.02
2022-09-12T18:09:55.349Z,76.55
2022-09-12T18:14:56.994Z,76.34
2022-09-12T18:19:58.688Z,76.54
2022-09-12T18:25:00.588Z,77.01
2022-09-12T18:30:20.619Z,77.08
2022-09-12T18:35:23.130Z,76.66
2022-09-12T18:40:25.864Z,77.38
2022-09-12T18:45:27.554Z,77.38
2022-09-12T18:50:29.382Z,77.08
2022-09-12T18:55:32.069Z,76.82
2022-09-12T19:00:33.854Z,77.53
2022-09-12T19:05:35.709Z,77.86
2022-09-12T19:10:37.526Z,77.39
2022-09-12T19:15:40.236Z,77.85
2022-09-12T19:20:42.049Z,78.33
2022-09-12T19:25:45.461Z,77.92
2022-09-12T19:30:47.761Z,77.42
2022-09-12T19:35:50.292Z,77.55
2022-09-12T19:40:57.022Z,77.56
2022-09-12T19:46:00.243Z,77.60
2022-09-12T19:51:04.664Z,78.26
2022-09-12T19:56:08.729Z,78.36
2022-09-12T20:01:13.526Z,78.28
2022-09-12T20:06:17.792Z,78.33
2022-09-12T20:11:21.662Z,78.74
2022-09-12T20:16:25.797Z,78.75
2022-09-12T20:21:34.202Z,78.87
2022-09-12T20:26:36.382Z,79.13
2022-09-12T20:31:40.709Z,79.60
2022-09-12T20:36:42.861Z,79.54
2022-09-12T20:41:45.002Z,80.32
2022-09-12T20:46:46.903Z,79.98
2022-09-12T20:51:48.961Z,80.15
2022-09-12T20:56:50.773Z,80.01
2022-09-12T21:01:52.409Z,80.43
2022-09-12T21:06:54.361Z,80.98
2022-09-12T21:11:56.057Z,81.02
2022-09-12T21:16:57.725Z,81.18
2022-09-12T21:21:59.360Z,81.41
2022-09-12T21:27:04.168Z,81.12
2022-09-12T21:32:09.943Z,81.05
2022-09-12T21:37:14.182Z,81.42
2022-09-12T21:42:16.052Z,81.63
2022-09-12T21:47:18.046Z,81.91
2022-09-12T21:52:19.924Z,81.91
2022-09-12T21:57:22.465Z,82.46
2022-09-12T22:02:27.481Z,82.52
2022-09-12T22:07:29.642Z,82.40
2022-09-12T22:12:31.388Z,82.84
2022-09-12T22:17:33.229Z,82.99
2022-09-12T22:22:54.818Z,82.60
2022-09-12T22:27:56.610Z,82.81
2022-09-12T22:32:58.439Z,82.95
2022-09-12T22:38:00.131Z,83.47
2022-09-12T22:43:02.612Z,83.34
2022-09-12T22:48:08.590Z,83.50
2022-09-12T22:53:11.286Z,84.12
2022-09-12T22:58:13.081Z,84.19
2022-09-12T23:03:15.057Z,84.78
2022-09-12T23:08:17.781Z,85.03
2022-09-12T23:13:19.573Z,85.22
2022-09-12T23:18:21.144Z,85.60
2022-09-12T23:23:22.814Z,85.93
2022-09-12T23:28:24.597Z,85.78
2022-09-12T23:33:30.679Z,85.62
2022-09-12T23:38:34.125Z,85.39
2022-09-12T23:43:35.837Z,85.44
2022-09-12T23:48:37.757Z,86.13
2022-09-12T23:53:41.310Z,86.27
2022-09-12T23:58:43.209Z,85.97
